Strona główna
METAR-TAF:

METAR-TAF

Lotnisko :

Westerly State Airport

Westerly, Rhode Island, Stany Zjednoczone

Szerokość geograficzna: 41-20-59N, Długość geograficzna: 071-47-56W, wysokość: 24 m

Aktualna obserwacja pogody

Raport powstał 1 godzina i 5 minut temu, godzina 22:53 UTC
Wiatr 5 kt z kierunków zmiennych
Temperatura 0°C
Wilgotność 29%
Ciśnienie 1033 hPa
Widzialność: 16.1 km
bezchmurnie

METAR: KWST 192253Z AUTO VRB05KT 10SM CLR 00/M16 A3051 RMK AO2 SLP332 T00001161

czas: 18:58 (23:58 UTC)


TAF: brakujący

Obserwacja i prognoza pogody dla ponad 4000 lotnisk (raport METAR i TAF).

Dostępne stacje oznaczono żółtymi i czerwonymi punktami na mapie.

Najedź kursorem aby zobaczyć nazwę stacji.

Kliknij aby zobaczyć obserwacje i prognozy pogody.

Aby zmienić mapę: kliknij na zielony przycisk z czarnym krzyżykiem, aby powiększyć; na zielony przycisk z myślnikiem, aby pomniejszyć; na zielone strzałki, aby przejść do map sąsiednich.


METAR-TAF: